Time;durP1;ratioP1;P1;durP2;ratioP2;P2;SDS_P1;SDS_P2;PMS_P1;PMS_P2;Temp;Humidity;BMP_temperature;BMP_pressure;BME280_temperature;BME280_humidity;BME280_pressure;Samples;Min_cycle;Max_cycle;Signal;HPM_P1;HPM_P2
2021/11/24 00:00:05;;;;;;;13.95;9.40;;;;;;;10.65;62.78;102757.75;4922504;28;123773;-64
2021/11/24 00:02:32;;;;;;;15.20;9.85;;;;;;;10.64;62.98;102758.66;4926938;28;110066;-64
2021/11/24 00:05:00;;;;;;;15.52;9.65;;;;;;;10.61;62.70;102764.00;4923801;28;110056;-64
2021/11/24 00:07:28;;;;;;;15.45;9.82;;;;;;;10.58;62.69;102761.38;4935655;28;124017;-62
2021/11/24 00:09:55;;;;;;;16.02;9.63;;;;;;;10.54;62.96;102759.66;4921697;28;123476;-62
2021/11/24 00:12:22;;;;;;;13.32;8.88;;;;;;;10.50;62.78;102755.31;4922977;28;109178;-62
2021/11/24 00:14:49;;;;;;;21.88;9.25;;;;;;;10.45;62.64;102751.84;4928280;28;109138;-62
2021/11/24 00:17:18;;;;;;;15.25;9.98;;;;;;;10.39;62.83;102751.94;4937433;28;124417;-62
2021/11/24 00:19:46;;;;;;;19.30;9.43;;;;;;;10.36;62.87;102746.66;4938023;28;124819;-62
2021/11/24 00:22:14;;;;;;;25.40;9.90;;;;;;;10.32;62.87;102746.72;4916642;28;109437;-62
2021/11/24 00:24:41;;;;;;;18.05;10.52;;;;;;;10.28;62.80;102755.59;4932465;28;109445;-62
2021/11/24 00:27:08;;;;;;;22.58;11.05;;;;;;;10.25;63.28;102745.03;4931692;28;123818;-62
2021/11/24 00:29:35;;;;;;;19.30;11.52;;;;;;;10.26;62.92;102757.34;4925984;28;123761;-62
2021/11/24 00:32:03;;;;;;;33.95;11.23;;;;;;;10.24;63.14;102747.69;4919666;28;109262;-62
2021/11/24 00:34:31;;;;;;;38.17;12.05;;;;;;;10.24;62.96;102748.56;4931080;28;109762;-62
2021/11/24 00:36:58;;;;;;;24.10;11.48;;;;;;;10.23;63.00;102752.13;4928595;28;123884;-63
2021/11/24 00:39:26;;;;;;;38.35;11.68;;;;;;;10.22;62.86;102745.06;4941354;28;123945;-61
2021/11/24 00:41:53;;;;;;;22.77;11.43;;;;;;;10.22;63.20;102745.06;4916757;28;109121;-61
2021/11/24 00:44:20;;;;;;;33.55;11.88;;;;;;;10.22;63.29;102745.06;4924815;28;109936;-61
2021/11/24 00:46:48;;;;;;;31.40;12.63;;;;;;;10.22;63.22;102745.06;4936907;28;124891;-61
2021/11/24 00:49:15;;;;;;;21.30;12.40;;;;;;;10.22;62.97;102745.06;4914281;28;123910;-61
2021/11/24 00:51:42;;;;;;;24.42;12.85;;;;;;;10.21;63.03;102743.31;4923189;28;109974;-61
2021/11/24 00:54:09;;;;;;;35.13;12.55;;;;;;;10.22;63.13;102734.47;4933749;28;110121;-63
2021/11/24 00:56:36;;;;;;;20.80;12.73;;;;;;;10.23;63.21;102736.22;4923680;28;124090;-61
2021/11/24 00:59:04;;;;;;;25.30;12.93;;;;;;;10.25;63.06;102739.72;4927038;28;124413;-61
2021/11/24 01:01:32;;;;;;;27.13;13.50;;;;;;;10.27;63.37;102737.94;4925475;28;109517;-61
2021/11/24 01:04:01;;;;;;;25.20;12.57;;;;;;;10.26;63.19;102735.28;4929802;28;110241;-61
2021/11/24 01:06:28;;;;;;;21.73;11.88;;;;;;;10.26;63.25;102730.88;4939041;28;124051;-63
2021/11/24 01:08:55;;;;;;;26.70;13.73;;;;;;;10.26;63.36;102733.50;4934935;28;123167;-63
2021/11/24 01:11:22;;;;;;;26.48;13.20;;;;;;;10.26;63.34;102732.66;4923780;28;109160;-63
2021/11/24 01:13:49;;;;;;;32.67;13.85;;;;;;;10.28;63.30;102728.19;4928348;28;110776;-63
2021/11/24 01:16:17;;;;;;;43.83;14.30;;;;;;;10.28;63.31;102731.75;4923601;28;124809;-63
2021/11/24 01:18:44;;;;;;;25.52;14.10;;;;;;;10.28;63.33;102718.50;4946199;28;123034;-61
2021/11/24 01:21:11;;;;;;;28.67;14.52;;;;;;;10.29;63.45;102720.25;4925543;28;109550;-61
2021/11/24 01:23:39;;;;;;;37.83;13.65;;;;;;;10.30;63.52;102722.03;4930147;28;109902;-61
2021/11/24 01:26:06;;;;;;;23.95;13.50;;;;;;;10.30;63.25;102727.34;4928467;28;123914;-61
2021/11/24 01:28:34;;;;;;;39.97;13.98;;;;;;;10.32;63.58;102730.84;4924424;28;124256;-61
2021/11/24 01:31:01;;;;;;;23.73;14.05;;;;;;;10.35;63.46;102721.09;4920144;28;109070;-61
2021/11/24 01:33:28;;;;;;;25.23;14.48;;;;;;;10.35;63.49;102719.31;4926063;28;110839;-61
2021/11/24 01:35:56;;;;;;;29.70;13.55;;;;;;;10.38;63.54;102721.03;4935491;28;123371;-61
2021/11/24 01:38:23;;;;;;;27.55;14.40;;;;;;;10.37;63.39;102714.88;4935789;28;123778;-61
2021/11/24 01:40:50;;;;;;;24.27;13.38;;;;;;;10.37;63.63;102714.00;4918880;28;110421;-61
2021/11/24 01:43:18;;;;;;;22.35;13.93;;;;;;;10.39;63.88;102714.84;4945588;28;110151;-62
2021/11/24 01:45:46;;;;;;;24.95;13.75;;;;;;;10.42;63.70;102709.53;4928542;28;124148;-62
2021/11/24 01:48:13;;;;;;;21.15;12.90;;;;;;;10.44;63.81;102718.31;4936179;28;124691;-63
2021/11/24 01:50:40;;;;;;;23.55;13.40;;;;;;;10.47;63.69;102712.97;4929762;28;108988;-63
2021/11/24 01:53:07;;;;;;;23.42;12.75;;;;;;;10.47;63.73;102708.56;4924537;28;108816;-63
2021/11/24 01:55:35;;;;;;;22.13;12.82;;;;;;;10.49;63.72;102698.81;4944898;28;123065;-62
2021/11/24 01:58:03;;;;;;;22.05;12.73;;;;;;;10.51;63.70;102688.19;4937989;28;124336;-62
2021/11/24 02:00:33;;;;;;;21.23;12.05;;;;;;;10.52;63.80;102695.22;4926711;28;109253;-62
2021/11/24 02:03:03;;;;;;;24.60;12.98;;;;;;;10.54;63.47;102688.13;4937799;28;110432;-62
2021/11/24 02:05:30;;;;;;;23.00;12.50;;;;;;;10.56;63.44;102690.75;4931841;28;124164;-62
2021/11/24 02:07:57;;;;;;;32.80;13.73;;;;;;;10.55;63.28;102689.91;4943497;28;124676;-61
2021/11/24 02:10:25;;;;;;;23.65;12.30;;;;;;;10.56;63.73;102685.47;4935857;28;109114;-61
2021/11/24 02:12:53;;;;;;;24.70;13.43;;;;;;;10.55;63.36;102689.91;4942275;28;109830;-61
2021/11/24 02:15:20;;;;;;;25.40;13.32;;;;;;;10.55;63.68;102689.91;4941947;28;123804;-61
2021/11/24 02:17:48;;;;;;;25.10;13.13;;;;;;;10.55;63.56;102692.56;4941550;28;124557;-61
2021/11/24 02:20:18;;;;;;;26.33;13.15;;;;;;;10.56;63.54;102681.03;4934458;28;109195;-61
2021/11/24 02:22:45;;;;;;;25.42;13.20;;;;;;;10.56;63.38;102681.03;4936047;28;110119;-61
2021/11/24 02:25:12;;;;;;;23.33;13.02;;;;;;;10.55;63.39;102679.31;4943618;28;124024;-62
2021/11/24 02:27:39;;;;;;;21.40;11.98;;;;;;;10.56;63.40;102680.16;4918958;28;124282;-63
2021/11/24 02:30:06;;;;;;;22.88;12.13;;;;;;;10.54;63.50;102676.66;4924769;28;110148;-62
2021/11/24 02:32:34;;;;;;;21.13;12.00;;;;;;;10.51;63.41;102667.00;4928042;28;109806;-63
2021/11/24 02:35:01;;;;;;;18.73;11.15;;;;;;;10.48;63.64;102667.03;4922204;28;124890;-62
2021/11/24 02:37:28;;;;;;;19.92;11.45;;;;;;;10.46;63.76;102668.84;4930634;28;124429;-63
2021/11/24 02:39:55;;;;;;;19.25;11.63;;;;;;;10.47;63.59;102670.56;4928973;28;108988;-62
2021/11/24 02:42:22;;;;;;;17.30;10.85;;;;;;;10.49;63.37;102668.78;4935492;28;109710;-62
2021/11/24 02:44:49;;;;;;;17.85;10.88;;;;;;;10.47;63.51;102662.63;4928259;28;124333;-63
2021/11/24 02:47:22;;;;;;;18.08;11.55;;;;;;;10.49;63.67;102663.47;4930518;28;124505;-62
2021/11/24 02:49:52;;;;;;;16.40;10.52;;;;;;;10.50;63.74;102654.66;4937705;28;109402;-63
2021/11/24 02:52:21;;;;;;;17.48;11.07;;;;;;;10.50;63.70;102649.34;4947509;28;110356;-63
2021/11/24 02:55:00;;;;;;;17.65;10.65;;;;;;;10.51;63.50;102651.13;4929802;28;127136;-63
2021/11/24 02:57:32;;;;;;;19.23;11.68;;;;;;;10.53;63.50;102633.41;4926220;28;123826;-63
2021/11/24 03:00:01;;;;;;;19.35;11.60;;;;;;;10.53;63.75;102638.72;4931607;28;109154;-63
2021/11/24 03:02:28;;;;;;;18.02;11.05;;;;;;;10.54;63.51;102635.16;4919921;28;110312;-62
2021/11/24 03:04:56;;;;;;;19.35;11.15;;;;;;;10.54;63.49;102629.84;4925813;28;124744;-63
2021/11/24 03:07:23;;;;;;;18.08;11.38;;;;;;;10.55;63.61;102621.03;4918506;28;123885;-63
2021/11/24 03:09:52;;;;;;;19.40;10.60;;;;;;;10.54;63.69;102611.31;4919964;28;109326;-62
2021/11/24 03:12:20;;;;;;;16.08;10.63;;;;;;;10.56;63.40;102606.84;4948215;28;108930;-63
2021/11/24 03:14:47;;;;;;;17.83;11.02;;;;;;;10.58;63.53;102610.34;4924629;28;124074;-62
2021/11/24 03:17:15;;;;;;;19.38;10.88;;;;;;;10.57;63.90;102603.31;4923828;28;124843;-63
2021/11/24 03:19:44;;;;;;;17.38;10.07;;;;;;;10.60;63.50;102602.38;4916292;28;111563;-61
2021/11/24 03:22:11;;;;;;;17.52;10.68;;;;;;;10.61;63.74;102594.41;4939682;28;110220;-61
2021/11/24 03:24:38;;;;;;;17.40;10.88;;;;;;;10.64;63.87;102593.47;4944131;28;124779;-61
2021/11/24 03:27:06;;;;;;;19.50;10.02;;;;;;;10.64;63.78;102594.38;4939056;28;123053;-61
2021/11/24 03:29:33;;;;;;;20.00;10.43;;;;;;;10.65;63.62;102596.09;4936090;28;109236;-61
2021/11/24 03:32:00;;;;;;;20.65;10.95;;;;;;;10.66;63.56;102587.25;4921159;28;109770;-61
2021/11/24 03:34:27;;;;;;;23.55;10.65;;;;;;;10.65;63.42;102580.19;4925369;28;124104;-61
2021/11/24 03:36:54;;;;;;;20.02;10.90;;;;;;;10.67;63.43;102577.53;4932550;28;124513;-61
2021/11/24 03:39:21;;;;;;;19.15;10.52;;;;;;;10.66;63.53;102576.66;4939031;28;108994;-62
2021/11/24 03:41:49;;;;;;;27.13;10.52;;;;;;;10.66;63.85;102581.06;4940145;28;110261;-62
2021/11/24 03:44:16;;;;;;;20.48;10.80;;;;;;;10.66;63.88;102576.66;4924730;28;124551;-63
2021/11/24 03:46:43;;;;;;;18.90;10.88;;;;;;;10.66;63.85;102574.00;4943521;28;124570;-62
2021/11/24 03:49:10;;;;;;;21.48;10.77;;;;;;;10.67;63.79;102565.16;4928011;28;109148;-63
2021/11/24 03:51:37;;;;;;;23.25;10.18;;;;;;;10.69;63.53;102559.81;4913045;28;108562;-63
2021/11/24 03:54:04;;;;;;;16.85;10.10;;;;;;;10.70;63.66;102557.16;4923209;28;124049;-62
2021/11/24 03:56:32;;;;;;;22.90;10.48;;;;;;;10.72;63.79;102565.09;4941835;28;125425;-62
2021/11/24 03:58:59;;;;;;;17.02;10.25;;;;;;;10.73;63.87;102560.66;4926510;28;109762;-62
2021/11/24 04:01:26;;;;;;;24.60;9.68;;;;;;;10.71;63.72;102558.88;4938771;28;110301;-62
2021/11/24 04:03:53;;;;;;;25.38;9.55;;;;;;;10.71;63.63;102548.28;4929404;28;123906;-62
2021/11/24 04:06:20;;;;;;;20.90;9.52;;;;;;;10.68;63.78;102543.06;4941577;28;123757;-62
2021/11/24 04:08:47;;;;;;;38.80;9.93;;;;;;;10.66;63.96;102555.47;4934113;28;109439;-62
2021/11/24 04:11:14;;;;;;;26.52;9.38;;;;;;;10.67;63.79;102554.53;4927150;28;110092;-62
2021/11/24 04:13:43;;;;;;;15.27;9.27;;;;;;;10.67;64.03;102557.19;4937988;28;124451;-62
2021/11/24 04:16:10;;;;;;;20.20;9.18;;;;;;;10.70;64.03;102551.84;4934335;28;124773;-62
2021/11/24 04:18:37;;;;;;;14.35;9.45;;;;;;;10.71;64.08;102548.28;4921589;28;109718;-62
2021/11/24 04:21:04;;;;;;;14.50;9.07;;;;;;;10.75;63.93;102548.25;4916321;28;109055;-62
2021/11/24 04:23:31;;;;;;;15.70;9.57;;;;;;;10.76;64.00;102544.69;4942567;28;124733;-62
2021/11/24 04:25:59;;;;;;;18.58;9.77;;;;;;;10.80;64.05;102541.09;4931563;28;124370;-62
2021/11/24 04:28:26;;;;;;;15.27;9.75;;;;;;;10.81;63.85;102533.13;4937876;28;109402;-62
2021/11/24 04:30:53;;;;;;;16.20;10.23;;;;;;;10.84;64.10;102537.47;4920959;28;108924;-63
2021/11/24 04:33:20;;;;;;;16.20;10.07;;;;;;;10.86;64.05;102530.38;4938576;28;123085;-63
2021/11/24 04:35:48;;;;;;;40.30;10.35;;;;;;;10.88;64.05;102523.25;4924232;28;123703;-62
2021/11/24 04:38:15;;;;;;;36.05;11.38;;;;;;;10.88;63.97;102533.84;4924802;28;109271;-63
2021/11/24 04:40:42;;;;;;;22.50;11.20;;;;;;;10.86;63.81;102530.38;4932019;28;110076;-63
2021/11/24 04:43:12;;;;;;;24.55;10.65;;;;;;;10.85;63.73;102533.91;4940359;28;123992;-61
2021/11/24 04:45:39;;;;;;;35.92;11.25;;;;;;;10.85;63.85;102525.94;4938429;28;124199;-61
2021/11/24 04:48:06;;;;;;;41.00;12.15;;;;;;;10.83;64.01;102525.09;4929479;28;109614;-62
2021/11/24 04:50:34;;;;;;;43.47;12.63;;;;;;;10.84;63.76;102526.88;4913518;28;109901;-61
2021/11/24 04:53:01;;;;;;;55.05;12.98;;;;;;;10.80;63.82;102517.22;4926981;28;124094;-61
2021/11/24 04:55:31;;;;;;;34.78;12.93;;;;;;;10.79;63.58;102523.44;4912736;28;123738;-62
2021/11/24 04:57:58;;;;;;;27.70;12.80;;;;;;;10.76;64.09;102523.50;4916392;28;110235;-62
2021/11/24 05:00:25;;;;;;;38.67;12.23;;;;;;;10.77;63.90;102519.94;4931625;28;110978;-62
2021/11/24 05:02:52;;;;;;;29.85;12.13;;;;;;;10.78;64.01;102513.75;4935655;28;124053;-61
2021/11/24 05:05:22;;;;;;;20.15;11.65;;;;;;;10.79;64.10;102515.47;4928314;28;123948;-63
2021/11/24 05:07:50;;;;;;;32.22;12.18;;;;;;;10.80;64.37;102519.88;4938265;28;109278;-61
2021/11/24 05:10:17;;;;;;;22.60;12.43;;;;;;;10.81;64.00;102511.91;4928486;28;109822;-61
2021/11/24 05:12:44;;;;;;;24.35;13.10;;;;;;;10.83;63.94;102514.50;4940053;28;124511;-61
2021/11/24 05:15:18;;;;;;;31.40;12.98;;;;;;;10.84;64.01;102510.97;4919421;28;124180;-61
2021/11/24 05:17:48;;;;;;;33.50;12.77;;;;;;;10.84;63.85;102505.66;4932916;28;109296;-61
2021/11/24 05:20:19;;;;;;;25.67;12.88;;;;;;;10.85;63.90;102502.09;4937366;28;110696;-61
2021/11/24 05:22:48;;;;;;;28.13;13.30;;;;;;;10.84;63.91;102505.66;4926191;28;124106;-61
2021/11/24 05:25:16;;;;;;;28.50;13.13;;;;;;;10.81;64.32;102508.38;4935392;28;123762;-61
2021/11/24 05:27:43;;;;;;;29.52;13.88;;;;;;;10.80;64.18;102503.97;4927832;28;109365;-61
2021/11/24 05:30:11;;;;;;;30.20;13.38;;;;;;;10.79;64.49;102496.91;4937213;28;110114;-61
2021/11/24 05:32:38;;;;;;;37.38;13.98;;;;;;;10.79;64.27;102496.91;4938836;28;123869;-61
2021/11/24 05:35:06;;;;;;;35.63;14.15;;;;;;;10.79;64.20;102499.56;4930193;28;124170;-61
2021/11/24 05:37:33;;;;;;;37.60;14.25;;;;;;;10.79;63.91;102496.91;4928796;28;109972;-60
2021/11/24 05:40:01;;;;;;;38.00;14.50;;;;;;;10.77;64.29;102493.44;4921678;28;109795;-61
2021/11/24 05:42:28;;;;;;;36.25;14.23;;;;;;;10.75;64.18;102487.28;4919167;28;124099;-61
2021/11/24 05:45:14;;;;;;;38.10;13.85;;;;;;;10.74;64.31;102490.81;4928118;28;123718;-61
2021/11/24 05:47:55;;;;;;;35.47;14.15;;;;;;;10.74;64.45;102488.19;4934273;28;110356;-61
2021/11/24 05:50:40;;;;;;;35.97;14.45;;;;;;;10.76;64.47;102481.09;4937997;28;110267;-61
2021/11/24 05:53:07;;;;;;;52.33;15.45;;;;;;;10.78;64.47;102484.59;4940095;28;124569;-61
2021/11/24 05:55:35;;;;;;;56.85;15.65;;;;;;;10.76;64.23;102479.31;4946818;28;124056;-61
2021/11/24 05:58:02;;;;;;;46.17;16.17;;;;;;;10.76;63.98;102475.81;4946063;28;109641;-61
2021/11/24 06:00:29;;;;;;;53.67;15.85;;;;;;;10.71;64.26;102468.78;4940269;28;110528;-61
2021/11/24 06:02:56;;;;;;;39.05;15.07;;;;;;;10.68;64.29;102468.88;4927076;28;123848;-61
2021/11/24 06:05:23;;;;;;;42.42;15.80;;;;;;;10.66;64.39;102467.13;4921761;28;124005;-61
2021/11/24 06:07:56;;;;;;;63.42;15.30;;;;;;;10.67;64.56;102461.81;4931271;28;109245;-62
2021/11/24 06:10:23;;;;;;;41.65;15.55;;;;;;;10.70;64.66;102459.09;4936370;28;109925;-62
2021/11/24 06:12:50;;;;;;;42.97;15.27;;;;;;;10.71;64.56;102458.19;4944980;28;123803;-62
2021/11/24 06:15:18;;;;;;;44.22;15.20;;;;;;;10.75;64.47;102463.44;4941813;28;124457;-62
2021/11/24 06:17:47;;;;;;;51.28;15.55;;;;;;;10.74;64.16;102456.38;4939782;28;109356;-63
2021/11/24 06:20:16;;;;;;;35.45;14.10;;;;;;;10.72;64.57;102459.09;4929685;28;109988;-63
2021/11/24 06:22:45;;;;;;;51.92;14.75;;;;;;;10.73;64.48;102454.66;4933043;28;123901;-63
2021/11/24 06:25:13;;;;;;;46.90;14.48;;;;;;;10.73;64.27;102455.50;4925193;28;123488;-63
2021/11/24 06:27:42;;;;;;;40.40;15.00;;;;;;;10.70;64.68;102451.16;4931807;28;110157;-63
2021/11/24 06:30:13;;;;;;;40.53;14.13;;;;;;;10.67;64.13;102450.34;4931386;28;109657;-63
2021/11/24 06:32:40;;;;;;;37.17;14.00;;;;;;;10.62;64.46;102453.06;4944129;28;123006;-64
2021/11/24 06:35:08;;;;;;;37.38;14.30;;;;;;;10.61;64.60;102451.34;4928900;28;125401;-64
2021/11/24 06:37:39;;;;;;;48.92;13.82;;;;;;;10.62;64.45;102450.41;4943121;28;110488;-64
2021/11/24 06:40:08;;;;;;;42.30;15.20;;;;;;;10.64;64.55;102453.94;4939648;28;110030;-64
2021/11/24 06:42:35;;;;;;;45.58;14.93;;;;;;;10.68;64.82;102452.97;4939556;28;124741;-64
2021/11/24 06:45:03;;;;;;;50.17;15.25;;;;;;;10.73;64.40;102454.66;4934726;28;123818;-64
2021/11/24 06:47:30;;;;;;;56.13;14.50;;;;;;;10.74;64.47;102453.72;4944414;28;109167;-64
2021/11/24 06:49:57;;;;;;;46.88;15.25;;;;;;;10.71;64.30;102452.88;4909191;28;109072;-64
2021/11/24 06:52:24;;;;;;;50.10;14.27;;;;;;;10.69;64.46;102452.03;4951226;28;123940;-64
2021/11/24 06:54:52;;;;;;;39.78;13.43;;;;;;;10.69;64.68;102454.69;4926637;28;124120;-64
2021/11/24 06:57:19;;;;;;;48.42;12.80;;;;;;;10.70;64.50;102453.81;4942119;28;109513;-64
2021/11/24 06:59:46;;;;;;;35.95;12.05;;;;;;;10.71;64.51;102452.88;4939284;28;110302;-64
2021/11/24 07:02:13;;;;;;;35.10;12.70;;;;;;;10.70;64.51;102456.47;4951227;28;123952;-64
2021/11/24 07:04:42;;;;;;;32.33;12.32;;;;;;;10.70;64.51;102456.47;4937357;28;124028;-64
2021/11/24 07:07:09;;;;;;;34.35;12.45;;;;;;;10.68;64.63;102447.66;4929616;28;109083;-64
2021/11/24 07:09:37;;;;;;;39.10;13.02;;;;;;;10.70;64.51;102443.22;4920070;28;110344;-64
2021/11/24 07:12:04;;;;;;;32.90;12.63;;;;;;;10.73;64.48;102454.66;4925258;28;124348;-64
2021/11/24 07:14:32;;;;;;;45.85;13.73;;;;;;;10.71;64.50;102447.59;4919521;28;122796;-64
2021/11/24 07:17:00;;;;;;;34.35;12.18;;;;;;;10.73;64.63;102454.66;4924213;28;109089;-64
2021/11/24 07:19:27;;;;;;;37.67;13.00;;;;;;;10.73;64.65;102446.69;4942530;28;110303;-64
2021/11/24 07:21:54;;;;;;;47.60;13.85;;;;;;;10.71;64.27;102452.88;4930523;28;123913;-63
2021/11/24 07:24:22;;;;;;;35.58;13.15;;;;;;;10.71;64.51;102447.59;4920158;28;123900;-63
2021/11/24 07:26:49;;;;;;;37.10;12.85;;;;;;;10.71;64.85;102447.59;4933698;28;109989;-62
2021/11/24 07:29:16;;;;;;;40.97;13.52;;;;;;;10.73;64.62;102444.91;4936239;28;110158;-62
2021/11/24 07:31:43;;;;;;;37.63;13.18;;;;;;;10.73;64.40;102441.41;4932424;28;123932;-62
2021/11/24 07:34:13;;;;;;;32.95;12.52;;;;;;;10.74;64.49;102440.47;4935305;28;122667;-63
2021/11/24 07:36:41;;;;;;;36.95;13.32;;;;;;;10.75;64.62;102436.94;4933695;28;109547;-62
2021/11/24 07:39:09;;;;;;;31.77;12.23;;;;;;;10.78;64.36;102444.84;4930547;28;110575;-61
2021/11/24 07:41:36;;;;;;;31.85;12.27;;;;;;;10.80;64.79;102450.97;4925420;28;124147;-61
2021/11/24 07:44:03;;;;;;;29.20;11.77;;;;;;;10.80;64.66;102450.97;4927638;28;124320;-61
2021/11/24 07:46:31;;;;;;;27.23;11.77;;;;;;;10.79;64.46;102451.88;4932837;28;109321;-61
2021/11/24 07:48:58;;;;;;;33.40;11.60;;;;;;;10.82;64.56;102451.81;4925824;28;109598;-61
2021/11/24 07:51:26;;;;;;;30.10;12.00;;;;;;;10.84;64.67;102453.53;4911956;28;124355;-61
2021/11/24 07:53:54;;;;;;;29.38;12.15;;;;;;;10.86;64.72;102445.53;4908278;28;123883;-61
2021/11/24 07:56:23;;;;;;;31.65;11.35;;;;;;;10.86;64.35;102440.25;4917527;28;109118;-63
2021/11/24 07:58:50;;;;;;;33.53;12.15;;;;;;;10.87;64.65;102436.69;4932585;28;110025;-61
2021/11/24 08:01:17;;;;;;;29.55;12.13;;;;;;;10.89;64.59;102437.53;4931012;28;124276;-61
2021/11/24 08:03:45;;;;;;;32.53;11.40;;;;;;;10.90;64.80;102436.63;4935090;28;124466;-61
2021/11/24 08:06:12;;;;;;;26.50;11.65;;;;;;;10.90;64.62;102431.31;4931790;28;109572;-61
2021/11/24 08:08:39;;;;;;;27.40;11.48;;;;;;;10.90;64.68;102426.00;4945402;28;110343;-62
2021/11/24 08:11:07;;;;;;;29.65;11.38;;;;;;;10.90;64.62;102426.00;4930469;28;124052;-62
2021/11/24 08:13:35;;;;;;;32.25;11.60;;;;;;;10.91;64.64;102425.13;4933399;28;124685;-62
2021/11/24 08:16:02;;;;;;;29.02;12.27;;;;;;;10.92;64.63;102429.50;4932718;28;110811;-62
2021/11/24 08:18:29;;;;;;;28.98;11.05;;;;;;;10.95;64.56;102424.16;4934779;28;108782;-62
2021/11/24 08:21:00;;;;;;;34.78;12.90;;;;;;;10.95;64.56;102421.50;4929891;28;124291;-62
2021/11/24 08:23:27;;;;;;;31.88;12.85;;;;;;;10.94;64.68;102411.78;4941151;28;124606;-62
2021/11/24 08:25:56;;;;;;;32.47;13.00;;;;;;;10.95;64.59;102408.25;4951125;28;109654;-62
2021/11/24 08:28:23;;;;;;;32.33;12.52;;;;;;;10.96;64.48;102402.00;4932756;28;109411;-62
2021/11/24 08:30:50;;;;;;;30.33;12.75;;;;;;;10.98;64.60;102396.69;4930382;28;124042;-62
2021/11/24 08:33:18;;;;;;;29.35;13.00;;;;;;;10.99;64.41;102388.72;4933524;28;123158;-62
2021/11/24 08:35:45;;;;;;;34.42;13.75;;;;;;;10.98;64.49;102392.28;4933783;28;109165;-62
2021/11/24 08:38:12;;;;;;;33.20;14.30;;;;;;;10.98;64.41;102394.94;4948364;28;110039;-62
2021/11/24 08:40:39;;;;;;;36.05;14.95;;;;;;;11.00;64.51;102390.47;4931450;28;124004;-62
2021/11/24 08:43:06;;;;;;;33.70;14.35;;;;;;;11.02;64.48;102386.00;4933915;28;124365;-62
2021/11/24 08:45:35;;;;;;;33.72;14.48;;;;;;;11.05;64.19;102385.91;4932801;28;109262;-62
2021/11/24 08:48:06;;;;;;;36.20;15.23;;;;;;;11.04;64.34;102383.31;4932479;28;109868;-62
2021/11/24 08:50:34;;;;;;;35.42;15.20;;;;;;;11.03;64.65;102385.06;4929807;28;123103;-62
2021/11/24 08:53:03;;;;;;;36.22;14.90;;;;;;;11.06;64.26;102382.38;4931714;28;96934;-62
2021/11/24 08:55:30;;;;;;;34.65;14.27;;;;;;;11.03;64.19;102379.78;4931305;28;109735;-62
2021/11/24 08:57:57;;;;;;;33.00;15.10;;;;;;;11.02;64.38;102383.34;4932660;28;109979;-62
2021/11/24 09:00:25;;;;;;;34.47;14.98;;;;;;;11.02;64.33;102386.00;4931316;28;124161;-62
2021/11/24 09:02:58;;;;;;;33.15;14.77;;;;;;;11.03;64.49;102385.06;4934184;28;123735;-61
2021/11/24 09:05:26;;;;;;;34.72;15.30;;;;;;;11.02;64.27;102388.66;4932052;28;110101;-61
2021/11/24 09:07:53;;;;;;;34.38;15.50;;;;;;;11.01;64.26;102386.88;4933084;28;110334;-62
2021/11/24 09:10:21;;;;;;;38.35;16.08;;;;;;;11.03;64.42;102390.38;4926091;28;124022;-61
2021/11/24 09:12:49;;;;;;;36.58;15.63;;;;;;;11.06;64.59;102395.63;4940144;28;124714;-62
2021/11/24 09:15:16;;;;;;;38.20;16.02;;;;;;;11.08;64.38;102393.81;4918524;28;110356;-61
2021/11/24 09:18:04;;;;;;;36.08;15.40;;;;;;;11.10;64.57;102392.00;4933939;28;109869;-62
2021/11/24 09:20:33;;;;;;;34.05;14.57;;;;;;;11.13;64.69;102385.75;4930999;28;124378;-62
2021/11/24 09:23:04;;;;;;;37.88;15.85;;;;;;;11.15;64.39;102377.75;4927472;28;123982;-62
2021/11/24 09:25:47;;;;;;;36.88;15.10;;;;;;;11.18;64.60;102383.00;4936931;28;109134;-62
2021/11/24 09:28:15;;;;;;;36.88;15.27;;;;;;;11.18;64.29;102369.75;4924846;28;110194;-62
2021/11/24 09:30:42;;;;;;;32.15;14.80;;;;;;;11.18;64.25;102367.09;4935993;28;122916;-61
2021/11/24 09:33:11;;;;;;;32.08;15.20;;;;;;;11.19;64.52;102371.47;4946359;28;123776;-62
2021/11/24 09:35:38;;;;;;;33.92;15.35;;;;;;;11.21;64.27;102356.41;4920170;28;108894;-62
2021/11/24 09:38:06;;;;;;;31.05;14.63;;;;;;;11.22;64.53;102369.63;4931624;28;109816;-61
2021/11/24 09:40:34;;;;;;;33.58;15.30;;;;;;;11.26;64.34;102359.81;4930743;28;123867;-62
2021/11/24 09:43:06;;;;;;;36.08;15.32;;;;;;;11.28;64.35;102352.69;4949106;28;123883;-62
2021/11/24 09:45:35;;;;;;;37.83;15.00;;;;;;;11.31;64.35;102347.31;4951114;28;108941;-61
2021/11/24 09:48:03;;;;;;;33.15;15.15;;;;;;;11.34;64.49;102352.56;4949587;28;109710;-62
2021/11/24 09:50:34;;;;;;;31.90;14.38;;;;;;;11.37;64.25;102347.16;4924851;28;122958;-61
2021/11/24 09:53:02;;;;;;;32.60;15.27;;;;;;;11.40;64.46;102344.44;4941877;28;124000;-62
2021/11/24 09:55:34;;;;;;;35.20;15.07;;;;;;;11.44;64.37;102343.47;4949010;28;110254;-62
2021/11/24 09:58:01;;;;;;;32.78;15.02;;;;;;;11.48;64.41;102334.50;4937752;28;109884;-61
2021/11/24 10:00:28;;;;;;;33.47;14.90;;;;;;;11.52;64.42;102329.13;4936873;28;124453;-61
2021/11/24 10:02:57;;;;;;;34.58;15.93;;;;;;;11.54;64.22;102322.00;4936682;28;123862;-62
2021/11/24 10:05:26;;;;;;;31.08;14.52;;;;;;;11.58;64.08;102318.38;4936314;28;109107;-62
2021/11/24 10:07:54;;;;;;;34.22;14.52;;;;;;;11.60;64.25;102316.53;4921895;28;109678;-62
2021/11/24 10:10:21;;;;;;;33.60;14.95;;;;;;;11.63;64.21;102322.63;4914623;28;124268;-62
2021/11/24 10:12:49;;;;;;;32.53;15.00;;;;;;;11.66;64.33;102316.41;4946145;28;122974;-62
2021/11/24 10:15:45;;;;;;;35.17;15.07;;;;;;;11.67;64.17;102312.81;4948736;28;111506;-62
2021/11/24 10:18:23;;;;;;;36.10;15.45;;;;;;;11.67;64.18;102312.81;4933500;28;110332;-62
2021/11/24 10:21:01;;;;;;;34.85;16.50;;;;;;;11.67;63.84;102307.50;4932990;28;124483;-62
2021/11/24 10:23:36;;;;;;;34.80;14.93;;;;;;;11.66;63.86;102305.78;4943196;28;124002;-62
2021/11/24 10:26:13;;;;;;;33.10;15.43;;;;;;;11.66;64.11;102306.66;4939062;28;109790;-62
2021/11/24 10:28:57;;;;;;;35.30;15.32;;;;;;;11.69;63.94;102303.03;4934676;28;110096;-62
2021/11/24 10:31:33;;;;;;;36.53;14.25;;;;;;;11.71;64.04;102301.22;4938000;28;124679;-62
2021/11/24 10:34:11;;;;;;;33.67;13.95;;;;;;;11.72;63.82;102288.84;4953429;28;123589;-62
2021/11/24 10:36:53;;;;;;;35.65;14.18;;;;;;;11.70;63.72;102278.25;4954304;28;109537;-62
2021/11/24 10:39:22;;;;;;;33.90;13.77;;;;;;;11.69;63.80;102273.84;4956009;28;110236;-62
2021/11/24 10:41:50;;;;;;;31.95;13.65;;;;;;;11.66;63.56;102269.50;4927350;28;124025;-61
2021/11/24 10:44:30;;;;;;;35.50;14.98;;;;;;;11.62;63.62;102266.94;4941034;28;124012;-62
2021/11/24 10:46:59;;;;;;;34.10;13.57;;;;;;;11.63;63.76;102263.41;4936371;28;110221;-61
2021/11/24 10:49:33;;;;;;;36.05;14.63;;;;;;;11.65;63.82;102256.25;4948811;28;110375;-62
2021/11/24 10:52:21;;;;;;;35.78;14.18;;;;;;;11.66;63.64;102248.28;4934534;28;123807;-62
2021/11/24 10:55:18;;;;;;;38.10;14.52;;;;;;;11.66;63.81;102247.41;4932790;28;124614;-62
2021/11/24 10:58:02;;;;;;;35.25;14.77;;;;;;;11.69;63.67;102247.31;4918247;28;108128;-61
2021/11/24 11:00:42;;;;;;;35.88;14.25;;;;;;;11.71;63.59;102240.16;4935385;28;109149;-62
2021/11/24 11:03:41;;;;;;;37.03;15.13;;;;;;;11.75;63.51;102231.19;4910795;28;123281;-62
2021/11/24 11:06:09;;;;;;;36.03;14.52;;;;;;;11.78;63.53;102224.97;4911225;28;124180;-61
2021/11/24 11:08:37;;;;;;;38.38;14.77;;;;;;;11.83;63.57;102225.72;4908769;28;109501;-62